sensor_id;sensor_type;location;lat;lon;timestamp;temperature;humidity
76040;SHT30;64736;50.462;4.850;2023-02-08T21:43:57;0.09;66.31
76040;SHT30;64736;50.462;4.850;2023-02-08T21:46:24;0.23;65.35
76040;SHT30;64736;50.462;4.850;2023-02-08T21:48:52;0.12;66.89
76040;SHT30;64736;50.462;4.850;2023-02-08T21:51:36;0.20;66.12
76040;SHT30;64736;50.462;4.850;2023-02-08T21:54:22;0.12;65.15
76040;SHT30;64736;50.462;4.850;2023-02-08T21:57:20;-0.03;65.66
76040;SHT30;64736;50.462;4.850;2023-02-08T21:59:48;-0.25;68.02
76040;SHT30;64736;50.462;4.850;2023-02-08T22:02:23;-0.30;66.08
76040;SHT30;64736;50.462;4.850;2023-02-08T22:04:51;-0.49;66.45
76040;SHT30;64736;50.462;4.850;2023-02-08T22:07:55;-0.28;68.93
76040;SHT30;64736;50.462;4.850;2023-02-08T22:10:23;-0.29;68.41
76040;SHT30;64736;50.462;4.850;2023-02-08T22:12:49;-0.33;69.73
76040;SHT30;64736;50.462;4.850;2023-02-08T22:15:18;-0.30;70.82
76040;SHT30;64736;50.462;4.850;2023-02-08T22:17:44;-0.08;69.87
76040;SHT30;64736;50.462;4.850;2023-02-08T22:20:10;-0.15;69.12
76040;SHT30;64736;50.462;4.850;2023-02-08T22:22:36;-0.02;67.61
76040;SHT30;64736;50.462;4.850;2023-02-08T22:25:02;-0.36;69.12
76040;SHT30;64736;50.462;4.850;2023-02-08T22:27:28;-0.32;69.97
76040;SHT30;64736;50.462;4.850;2023-02-08T22:29:53;-0.16;68.69
76040;SHT30;64736;50.462;4.850;2023-02-08T22:32:19;-0.30;67.44
76040;SHT30;64736;50.462;4.850;2023-02-08T22:34:46;-0.29;66.45
76040;SHT30;64736;50.462;4.850;2023-02-08T22:37:12;-0.66;69.04
76040;SHT30;64736;50.462;4.850;2023-02-08T22:39:38;-0.97;68.66
76040;SHT30;64736;50.462;4.850;2023-02-08T22:42:05;-1.06;70.44
76040;SHT30;64736;50.462;4.850;2023-02-08T22:44:36;-1.32;71.60
76040;SHT30;64736;50.462;4.850;2023-02-08T22:47:04;-1.22;72.86
76040;SHT30;64736;50.462;4.850;2023-02-08T22:49:31;-1.18;73.01
76040;SHT30;64736;50.462;4.850;2023-02-08T22:51:57;-1.32;73.29
76040;SHT30;64736;50.462;4.850;2023-02-08T22:54:23;-0.98;74.06
76040;SHT30;64736;50.462;4.850;2023-02-08T22:56:49;-0.89;73.52
76040;SHT30;64736;50.462;4.850;2023-02-08T22:59:15;-0.95;74.42
76040;SHT30;64736;50.462;4.850;2023-02-08T23:01:40;-1.08;73.92
76040;SHT30;64736;50.462;4.850;2023-02-08T23:04:06;-1.29;73.86
76040;SHT30;64736;50.462;4.850;2023-02-08T23:06:32;-1.29;74.12
76040;SHT30;64736;50.462;4.850;2023-02-08T23:08:58;-1.29;74.70
76040;SHT30;64736;50.462;4.850;2023-02-08T23:11:24;-1.36;74.71
76040;SHT30;64736;50.462;4.850;2023-02-08T23:13:50;-1.18;75.24
76040;SHT30;64736;50.462;4.850;2023-02-08T23:16:16;-1.25;75.56
76040;SHT30;64736;50.462;4.850;2023-02-08T23:18:42;-1.05;75.55
76040;SHT30;64736;50.462;4.850;2023-02-08T23:21:11;-1.09;75.23
76040;SHT30;64736;50.462;4.850;2023-02-08T23:23:38;-1.29;73.41
76040;SHT30;64736;50.462;4.850;2023-02-08T23:26:05;-1.46;72.68
76040;SHT30;64736;50.462;4.850;2023-02-08T23:28:32;-1.33;71.12
76040;SHT30;64736;50.462;4.850;2023-02-08T23:30:57;-1.33;70.57
76040;SHT30;64736;50.462;4.850;2023-02-08T23:33:23;-1.38;71.23
76040;SHT30;64736;50.462;4.850;2023-02-08T23:35:49;-1.43;70.65
76040;SHT30;64736;50.462;4.850;2023-02-08T23:38:15;-1.64;71.85
76040;SHT30;64736;50.462;4.850;2023-02-08T23:40:41;-1.68;72.67
76040;SHT30;64736;50.462;4.850;2023-02-08T23:43:06;-1.62;72.78
76040;SHT30;64736;50.462;4.850;2023-02-08T23:45:32;-1.78;73.23
76040;SHT30;64736;50.462;4.850;2023-02-08T23:47:58;-1.85;73.42
76040;SHT30;64736;50.462;4.850;2023-02-08T23:50:24;-1.73;72.82
76040;SHT30;64736;50.462;4.850;2023-02-08T23:52:50;-1.56;73.11
76040;SHT30;64736;50.462;4.850;2023-02-08T23:55:16;-1.85;70.09
76040;SHT30;64736;50.462;4.850;2023-02-08T23:57:42;-1.74;70.21
